sensor_id;sensor_type;location;lat;lon;timestamp;P1;durP1;ratioP1;P2;durP2;ratioP2
18360;SDS011;9308;48.550;9.108;2023-06-22T00:00:54;10.73;;;9.63;;
18360;SDS011;9308;48.550;9.108;2023-06-22T00:03:21;10.10;;;9.10;;
18360;SDS011;9308;48.550;9.108;2023-06-22T00:05:47;10.93;;;9.23;;
18360;SDS011;9308;48.550;9.108;2023-06-22T00:08:13;11.70;;;9.57;;
18360;SDS011;9308;48.550;9.108;2023-06-22T00:10:39;10.43;;;9.37;;
18360;SDS011;9308;48.550;9.108;2023-06-22T00:13:06;10.70;;;9.60;;
18360;SDS011;9308;48.550;9.108;2023-06-22T00:15:32;11.73;;;10.50;;
18360;SDS011;9308;48.550;9.108;2023-06-22T00:17:57;13.87;;;9.93;;
18360;SDS011;9308;48.550;9.108;2023-06-22T00:20:24;11.30;;;10.17;;
18360;SDS011;9308;48.550;9.108;2023-06-22T00:22:56;10.77;;;9.67;;
18360;SDS011;9308;48.550;9.108;2023-06-22T00:25:22;11.63;;;10.43;;
18360;SDS011;9308;48.550;9.108;2023-06-22T00:27:49;14.60;;;10.40;;
18360;SDS011;9308;48.550;9.108;2023-06-22T00:30:18;11.97;;;10.57;;
18360;SDS011;9308;48.550;9.108;2023-06-22T00:32:44;11.97;;;10.87;;
18360;SDS011;9308;48.550;9.108;2023-06-22T00:35:11;12.37;;;10.83;;
18360;SDS011;9308;48.550;9.108;2023-06-22T00:37:37;10.60;;;9.60;;
18360;SDS011;9308;48.550;9.108;2023-06-22T00:40:06;11.43;;;10.40;;
18360;SDS011;9308;48.550;9.108;2023-06-22T00:42:32;12.03;;;10.80;;
18360;SDS011;9308;48.550;9.108;2023-06-22T00:44:58;12.30;;;11.20;;
18360;SDS011;9308;48.550;9.108;2023-06-22T00:47:23;11.90;;;10.90;;
18360;SDS011;9308;48.550;9.108;2023-06-22T00:49:49;12.90;;;11.60;;
18360;SDS011;9308;48.550;9.108;2023-06-22T00:52:18;12.23;;;10.97;;
18360;SDS011;9308;48.550;9.108;2023-06-22T00:54:50;14.57;;;11.40;;
18360;SDS011;9308;48.550;9.108;2023-06-22T00:57:16;13.00;;;11.70;;
18360;SDS011;9308;48.550;9.108;2023-06-22T00:59:44;13.03;;;11.63;;
18360;SDS011;9308;48.550;9.108;2023-06-22T01:02:10;12.53;;;10.80;;
18360;SDS011;9308;48.550;9.108;2023-06-22T01:04:36;12.50;;;11.30;;
18360;SDS011;9308;48.550;9.108;2023-06-22T01:07:10;11.77;;;10.50;;
18360;SDS011;9308;48.550;9.108;2023-06-22T01:10:26;12.90;;;11.60;;
18360;SDS011;9308;48.550;9.108;2023-06-22T01:12:59;11.87;;;10.83;;
18360;SDS011;9308;48.550;9.108;2023-06-22T01:18:11;12.70;;;10.43;;
18360;SDS011;9308;48.550;9.108;2023-06-22T01:20:39;11.23;;;10.03;;
18360;SDS011;9308;48.550;9.108;2023-06-22T01:23:10;11.60;;;10.57;;
18360;SDS011;9308;48.550;9.108;2023-06-22T01:25:47;12.10;;;10.90;;
18360;SDS011;9308;48.550;9.108;2023-06-22T01:31:26;12.90;;;11.57;;
18360;SDS011;9308;48.550;9.108;2023-06-22T01:33:55;11.80;;;10.40;;
18360;SDS011;9308;48.550;9.108;2023-06-22T01:36:24;12.53;;;11.33;;
18360;SDS011;9308;48.550;9.108;2023-06-22T01:38:51;12.90;;;11.37;;
18360;SDS011;9308;48.550;9.108;2023-06-22T01:41:17;14.23;;;11.57;;
18360;SDS011;9308;48.550;9.108;2023-06-22T01:43:43;12.83;;;11.40;;
18360;SDS011;9308;48.550;9.108;2023-06-22T01:46:09;12.00;;;10.80;;
18360;SDS011;9308;48.550;9.108;2023-06-22T01:48:35;11.17;;;9.97;;
18360;SDS011;9308;48.550;9.108;2023-06-22T01:51:01;12.57;;;11.27;;
18360;SDS011;9308;48.550;9.108;2023-06-22T01:53:28;13.10;;;11.80;;
18360;SDS011;9308;48.550;9.108;2023-06-22T01:55:53;15.13;;;11.97;;
18360;SDS011;9308;48.550;9.108;2023-06-22T01:58:20;13.37;;;12.03;;
18360;SDS011;9308;48.550;9.108;2023-06-22T02:00:56;13.67;;;11.90;;
18360;SDS011;9308;48.550;9.108;2023-06-22T02:03:34;12.73;;;11.50;;
18360;SDS011;9308;48.550;9.108;2023-06-22T02:06:10;15.90;;;11.70;;
18360;SDS011;9308;48.550;9.108;2023-06-22T02:08:41;12.60;;;11.30;;
18360;SDS011;9308;48.550;9.108;2023-06-22T02:11:13;12.50;;;11.20;;
18360;SDS011;9308;48.550;9.108;2023-06-22T02:13:41;13.10;;;11.80;;
18360;SDS011;9308;48.550;9.108;2023-06-22T02:16:11;13.27;;;11.60;;
18360;SDS011;9308;48.550;9.108;2023-06-22T02:18:38;11.70;;;10.50;;
18360;SDS011;9308;48.550;9.108;2023-06-22T02:21:05;13.33;;;11.97;;
18360;SDS011;9308;48.550;9.108;2023-06-22T02:23:32;14.00;;;12.10;;
18360;SDS011;9308;48.550;9.108;2023-06-22T02:26:01;15.00;;;11.90;;
18360;SDS011;9308;48.550;9.108;2023-06-22T02:28:27;12.97;;;11.67;;
18360;SDS011;9308;48.550;9.108;2023-06-22T02:30:52;12.80;;;11.57;;
18360;SDS011;9308;48.550;9.108;2023-06-22T02:33:18;12.87;;;11.57;;
18360;SDS011;9308;48.550;9.108;2023-06-22T02:35:44;12.40;;;11.20;;
18360;SDS011;9308;48.550;9.108;2023-06-22T02:38:13;11.80;;;10.70;;
18360;SDS011;9308;48.550;9.108;2023-06-22T02:40:39;13.70;;;11.60;;
18360;SDS011;9308;48.550;9.108;2023-06-22T02:43:05;13.07;;;10.97;;
18360;SDS011;9308;48.550;9.108;2023-06-22T02:45:30;13.93;;;12.20;;
18360;SDS011;9308;48.550;9.108;2023-06-22T02:47:56;14.03;;;11.73;;
18360;SDS011;9308;48.550;9.108;2023-06-22T02:50:21;15.10;;;11.77;;
18360;SDS011;9308;48.550;9.108;2023-06-22T02:52:47;13.17;;;11.83;;
18360;SDS011;9308;48.550;9.108;2023-06-22T02:55:13;14.20;;;11.63;;
18360;SDS011;9308;48.550;9.108;2023-06-22T02:57:38;13.23;;;11.93;;
18360;SDS011;9308;48.550;9.108;2023-06-22T03:00:09;13.00;;;11.70;;
18360;SDS011;9308;48.550;9.108;2023-06-22T03:02:42;12.73;;;11.40;;
18360;SDS011;9308;48.550;9.108;2023-06-22T03:05:11;14.50;;;12.63;;
18360;SDS011;9308;48.550;9.108;2023-06-22T03:07:41;16.30;;;12.20;;
18360;SDS011;9308;48.550;9.108;2023-06-22T03:10:10;14.37;;;12.47;;
18360;SDS011;9308;48.550;9.108;2023-06-22T03:12:37;14.47;;;13.07;;
18360;SDS011;9308;48.550;9.108;2023-06-22T03:15:07;15.70;;;13.00;;
18360;SDS011;9308;48.550;9.108;2023-06-22T03:17:34;13.07;;;11.67;;
18360;SDS011;9308;48.550;9.108;2023-06-22T03:20:01;14.10;;;12.60;;
18360;SDS011;9308;48.550;9.108;2023-06-22T03:22:34;14.80;;;13.20;;
18360;SDS011;9308;48.550;9.108;2023-06-22T03:25:09;14.67;;;13.30;;
18360;SDS011;9308;48.550;9.108;2023-06-22T03:27:39;16.10;;;14.00;;
18360;SDS011;9308;48.550;9.108;2023-06-22T03:30:05;16.07;;;14.50;;
18360;SDS011;9308;48.550;9.108;2023-06-22T03:32:32;14.30;;;12.90;;
18360;SDS011;9308;48.550;9.108;2023-06-22T03:34:57;14.40;;;13.00;;
18360;SDS011;9308;48.550;9.108;2023-06-22T03:37:24;14.43;;;13.03;;
18360;SDS011;9308;48.550;9.108;2023-06-22T03:39:51;15.67;;;14.10;;
18360;SDS011;9308;48.550;9.108;2023-06-22T03:42:17;17.03;;;13.60;;
18360;SDS011;9308;48.550;9.108;2023-06-22T03:44:42;15.40;;;12.67;;
18360;SDS011;9308;48.550;9.108;2023-06-22T03:47:08;14.37;;;12.43;;
18360;SDS011;9308;48.550;9.108;2023-06-22T03:49:34;17.27;;;12.23;;
18360;SDS011;9308;48.550;9.108;2023-06-22T03:52:00;15.57;;;13.03;;
18360;SDS011;9308;48.550;9.108;2023-06-22T03:54:27;12.73;;;11.47;;
18360;SDS011;9308;48.550;9.108;2023-06-22T03:56:53;14.50;;;12.50;;
18360;SDS011;9308;48.550;9.108;2023-06-22T03:59:19;14.50;;;13.10;;
18360;SDS011;9308;48.550;9.108;2023-06-22T04:01:45;15.20;;;13.77;;
18360;SDS011;9308;48.550;9.108;2023-06-22T04:04:11;12.90;;;11.60;;
18360;SDS011;9308;48.550;9.108;2023-06-22T04:06:37;15.13;;;13.03;;
18360;SDS011;9308;48.550;9.108;2023-06-22T04:09:02;14.17;;;12.63;;
18360;SDS011;9308;48.550;9.108;2023-06-22T04:11:28;15.73;;;13.03;;
18360;SDS011;9308;48.550;9.108;2023-06-22T04:13:53;16.50;;;12.67;;
18360;SDS011;9308;48.550;9.108;2023-06-22T04:16:19;14.03;;;12.07;;
18360;SDS011;9308;48.550;9.108;2023-06-22T04:18:44;13.33;;;11.87;;
18360;SDS011;9308;48.550;9.108;2023-06-22T04:21:10;16.10;;;12.67;;
18360;SDS011;9308;48.550;9.108;2023-06-22T04:23:35;13.43;;;12.13;;
18360;SDS011;9308;48.550;9.108;2023-06-22T04:26:01;13.17;;;11.80;;
18360;SDS011;9308;48.550;9.108;2023-06-22T04:28:26;13.37;;;12.07;;
18360;SDS011;9308;48.550;9.108;2023-06-22T04:30:51;13.53;;;11.97;;
18360;SDS011;9308;48.550;9.108;2023-06-22T04:33:17;12.10;;;10.90;;
18360;SDS011;9308;48.550;9.108;2023-06-22T04:35:44;12.20;;;11.10;;
18360;SDS011;9308;48.550;9.108;2023-06-22T04:38:11;13.70;;;11.40;;
18360;SDS011;9308;48.550;9.108;2023-06-22T04:40:41;13.73;;;11.53;;
18360;SDS011;9308;48.550;9.108;2023-06-22T04:43:06;11.93;;;9.80;;
18360;SDS011;9308;48.550;9.108;2023-06-22T04:45:32;14.50;;;11.40;;
18360;SDS011;9308;48.550;9.108;2023-06-22T04:47:58;15.67;;;12.50;;
18360;SDS011;9308;48.550;9.108;2023-06-22T04:50:24;12.03;;;10.83;;
18360;SDS011;9308;48.550;9.108;2023-06-22T04:52:50;12.20;;;10.87;;
18360;SDS011;9308;48.550;9.108;2023-06-22T04:55:16;11.40;;;10.27;;
18360;SDS011;9308;48.550;9.108;2023-06-22T04:57:45;11.33;;;10.20;;
18360;SDS011;9308;48.550;9.108;2023-06-22T05:00:23;11.50;;;9.93;;
18360;SDS011;9308;48.550;9.108;2023-06-22T05:02:48;11.73;;;10.33;;
18360;SDS011;9308;48.550;9.108;2023-06-22T05:05:14;11.23;;;10.20;;
18360;SDS011;9308;48.550;9.108;2023-06-22T05:07:44;11.83;;;10.50;;
18360;SDS011;9308;48.550;9.108;2023-06-22T05:10:13;10.93;;;9.80;;
18360;SDS011;9308;48.550;9.108;2023-06-22T05:12:39;10.37;;;9.27;;
18360;SDS011;9308;48.550;9.108;2023-06-22T05:15:06;10.57;;;9.40;;
18360;SDS011;9308;48.550;9.108;2023-06-22T05:17:33;9.40;;;8.50;;
18360;SDS011;9308;48.550;9.108;2023-06-22T05:19:58;9.60;;;8.57;;
18360;SDS011;9308;48.550;9.108;2023-06-22T05:22:24;10.43;;;8.80;;
18360;SDS011;9308;48.550;9.108;2023-06-22T05:24:49;10.70;;;8.70;;
18360;SDS011;9308;48.550;9.108;2023-06-22T05:27:15;9.17;;;8.20;;
18360;SDS011;9308;48.550;9.108;2023-06-22T05:29:40;8.87;;;7.83;;
18360;SDS011;9308;48.550;9.108;2023-06-22T05:32:07;11.50;;;8.60;;
18360;SDS011;9308;48.550;9.108;2023-06-22T05:34:33;8.70;;;7.80;;
18360;SDS011;9308;48.550;9.108;2023-06-22T05:36:59;9.17;;;7.83;;
18360;SDS011;9308;48.550;9.108;2023-06-22T05:39:24;9.60;;;8.07;;
18360;SDS011;9308;48.550;9.108;2023-06-22T05:41:50;8.77;;;7.90;;
18360;SDS011;9308;48.550;9.108;2023-06-22T05:44:16;11.63;;;8.00;;
18360;SDS011;9308;48.550;9.108;2023-06-22T05:46:42;11.40;;;7.50;;
18360;SDS011;9308;48.550;9.108;2023-06-22T05:49:13;8.47;;;7.60;;
18360;SDS011;9308;48.550;9.108;2023-06-22T05:51:39;8.77;;;7.40;;
18360;SDS011;9308;48.550;9.108;2023-06-22T05:54:05;9.10;;;8.20;;
18360;SDS011;9308;48.550;9.108;2023-06-22T05:56:30;7.50;;;6.73;;
18360;SDS011;9308;48.550;9.108;2023-06-22T05:58:56;8.43;;;7.63;;
18360;SDS011;9308;48.550;9.108;2023-06-22T06:01:21;9.43;;;7.93;;
18360;SDS011;9308;48.550;9.108;2023-06-22T06:03:47;8.97;;;7.33;;
18360;SDS011;9308;48.550;9.108;2023-06-22T06:06:14;10.00;;;7.60;;
18360;SDS011;9308;48.550;9.108;2023-06-22T06:08:40;11.07;;;7.87;;
18360;SDS011;9308;48.550;9.108;2023-06-22T06:11:06;8.20;;;7.50;;
18360;SDS011;9308;48.550;9.108;2023-06-22T06:13:31;9.53;;;7.10;;
18360;SDS011;9308;48.550;9.108;2023-06-22T06:15:57;11.00;;;7.27;;
18360;SDS011;9308;48.550;9.108;2023-06-22T06:18:22;10.80;;;7.60;;
18360;SDS011;9308;48.550;9.108;2023-06-22T06:20:48;9.17;;;7.83;;
18360;SDS011;9308;48.550;9.108;2023-06-22T06:23:14;9.10;;;7.70;;
18360;SDS011;9308;48.550;9.108;2023-06-22T06:25:39;7.97;;;7.27;;
18360;SDS011;9308;48.550;9.108;2023-06-22T06:28:05;9.77;;;7.60;;
18360;SDS011;9308;48.550;9.108;2023-06-22T06:30:31;8.57;;;7.67;;
18360;SDS011;9308;48.550;9.108;2023-06-22T06:32:57;8.30;;;7.40;;
18360;SDS011;9308;48.550;9.108;2023-06-22T06:35:22;12.40;;;7.90;;
18360;SDS011;9308;48.550;9.108;2023-06-22T06:37:48;9.00;;;8.13;;
18360;SDS011;9308;48.550;9.108;2023-06-22T06:40:16;7.60;;;6.80;;
18360;SDS011;9308;48.550;9.108;2023-06-22T06:42:43;9.20;;;8.20;;
18360;SDS011;9308;48.550;9.108;2023-06-22T06:45:22;9.07;;;8.17;;
18360;SDS011;9308;48.550;9.108;2023-06-22T06:47:49;8.70;;;7.77;;
18360;SDS011;9308;48.550;9.108;2023-06-22T06:50:15;8.30;;;7.50;;
18360;SDS011;9308;48.550;9.108;2023-06-22T06:52:41;9.70;;;7.73;;
18360;SDS011;9308;48.550;9.108;2023-06-22T06:55:07;9.90;;;7.90;;
18360;SDS011;9308;48.550;9.108;2023-06-22T06:57:36;14.63;;;7.93;;
18360;SDS011;9308;48.550;9.108;2023-06-22T07:00:06;8.50;;;7.20;;
18360;SDS011;9308;48.550;9.108;2023-06-22T07:02:37;7.93;;;7.23;;
18360;SDS011;9308;48.550;9.108;2023-06-22T07:05:04;9.00;;;7.77;;
18360;SDS011;9308;48.550;9.108;2023-06-22T07:07:30;7.67;;;6.93;;
18360;SDS011;9308;48.550;9.108;2023-06-22T07:09:55;7.67;;;7.07;;
18360;SDS011;9308;48.550;9.108;2023-06-22T07:12:21;8.80;;;7.20;;
18360;SDS011;9308;48.550;9.108;2023-06-22T07:14:46;8.13;;;7.30;;
18360;SDS011;9308;48.550;9.108;2023-06-22T07:17:12;8.80;;;8.00;;
18360;SDS011;9308;48.550;9.108;2023-06-22T07:19:37;7.70;;;6.70;;
18360;SDS011;9308;48.550;9.108;2023-06-22T07:22:03;9.13;;;7.77;;
18360;SDS011;9308;48.550;9.108;2023-06-22T07:24:29;8.80;;;6.90;;
18360;SDS011;9308;48.550;9.108;2023-06-22T07:26:55;7.90;;;7.20;;
18360;SDS011;9308;48.550;9.108;2023-06-22T07:29:22;10.60;;;8.87;;
18360;SDS011;9308;48.550;9.108;2023-06-22T07:31:48;9.37;;;8.10;;
18360;SDS011;9308;48.550;9.108;2023-06-22T07:34:16;7.50;;;6.90;;
18360;SDS011;9308;48.550;9.108;2023-06-22T07:36:42;10.10;;;7.67;;
18360;SDS011;9308;48.550;9.108;2023-06-22T07:39:08;8.00;;;7.20;;
18360;SDS011;9308;48.550;9.108;2023-06-22T07:41:34;9.10;;;7.80;;
18360;SDS011;9308;48.550;9.108;2023-06-22T07:43:59;8.23;;;6.80;;
18360;SDS011;9308;48.550;9.108;2023-06-22T07:46:24;8.80;;;7.20;;
18360;SDS011;9308;48.550;9.108;2023-06-22T07:48:50;8.77;;;7.40;;
18360;SDS011;9308;48.550;9.108;2023-06-22T07:51:16;8.90;;;6.73;;
18360;SDS011;9308;48.550;9.108;2023-06-22T07:53:42;7.73;;;7.03;;
18360;SDS011;9308;48.550;9.108;2023-06-22T07:56:11;10.93;;;7.20;;
18360;SDS011;9308;48.550;9.108;2023-06-22T07:58:36;9.33;;;6.80;;
18360;SDS011;9308;48.550;9.108;2023-06-22T08:01:02;8.07;;;7.00;;
18360;SDS011;9308;48.550;9.108;2023-06-22T08:03:28;8.47;;;7.57;;
18360;SDS011;9308;48.550;9.108;2023-06-22T08:05:53;7.23;;;6.60;;
18360;SDS011;9308;48.550;9.108;2023-06-22T08:08:18;9.07;;;8.17;;
18360;SDS011;9308;48.550;9.108;2023-06-22T08:10:44;9.07;;;7.60;;
18360;SDS011;9308;48.550;9.108;2023-06-22T08:13:09;8.77;;;7.90;;
18360;SDS011;9308;48.550;9.108;2023-06-22T08:15:35;10.97;;;7.60;;
18360;SDS011;9308;48.550;9.108;2023-06-22T08:18:00;8.83;;;8.03;;
18360;SDS011;9308;48.550;9.108;2023-06-22T08:20:26;8.20;;;7.40;;
18360;SDS011;9308;48.550;9.108;2023-06-22T08:22:53;9.67;;;7.20;;
18360;SDS011;9308;48.550;9.108;2023-06-22T08:25:19;9.30;;;7.57;;
18360;SDS011;9308;48.550;9.108;2023-06-22T08:27:46;9.80;;;7.83;;
18360;SDS011;9308;48.550;9.108;2023-06-22T08:30:12;9.20;;;7.07;;
18360;SDS011;9308;48.550;9.108;2023-06-22T08:32:38;7.77;;;6.97;;
18360;SDS011;9308;48.550;9.108;2023-06-22T08:35:04;7.43;;;6.73;;
18360;SDS011;9308;48.550;9.108;2023-06-22T08:37:31;7.67;;;6.83;;
18360;SDS011;9308;48.550;9.108;2023-06-22T08:40:00;8.13;;;7.20;;
18360;SDS011;9308;48.550;9.108;2023-06-22T08:42:30;8.80;;;7.10;;
18360;SDS011;9308;48.550;9.108;2023-06-22T08:44:56;9.30;;;8.13;;
18360;SDS011;9308;48.550;9.108;2023-06-22T08:47:22;10.13;;;7.30;;
18360;SDS011;9308;48.550;9.108;2023-06-22T08:49:48;8.67;;;7.60;;
18360;SDS011;9308;48.550;9.108;2023-06-22T08:52:14;8.07;;;7.30;;
18360;SDS011;9308;48.550;9.108;2023-06-22T08:54:39;8.57;;;6.93;;
18360;SDS011;9308;48.550;9.108;2023-06-22T08:57:05;8.63;;;7.30;;
18360;SDS011;9308;48.550;9.108;2023-06-22T08:59:30;10.57;;;7.90;;
18360;SDS011;9308;48.550;9.108;2023-06-22T09:01:56;8.43;;;7.73;;
18360;SDS011;9308;48.550;9.108;2023-06-22T09:04:21;9.53;;;7.07;;
18360;SDS011;9308;48.550;9.108;2023-06-22T09:06:47;10.00;;;8.30;;
18360;SDS011;9308;48.550;9.108;2023-06-22T09:09:13;8.10;;;7.30;;
18360;SDS011;9308;48.550;9.108;2023-06-22T09:11:40;8.50;;;7.50;;
18360;SDS011;9308;48.550;9.108;2023-06-22T09:14:05;8.40;;;7.60;;
18360;SDS011;9308;48.550;9.108;2023-06-22T09:16:31;10.33;;;7.93;;
18360;SDS011;9308;48.550;9.108;2023-06-22T09:18:57;10.80;;;7.57;;
18360;SDS011;9308;48.550;9.108;2023-06-22T09:21:23;9.70;;;7.70;;
18360;SDS011;9308;48.550;9.108;2023-06-22T09:23:49;10.57;;;7.50;;
18360;SDS011;9308;48.550;9.108;2023-06-22T09:26:19;8.33;;;7.20;;
18360;SDS011;9308;48.550;9.108;2023-06-22T09:28:45;11.30;;;8.20;;
18360;SDS011;9308;48.550;9.108;2023-06-22T09:31:11;11.70;;;8.50;;
18360;SDS011;9308;48.550;9.108;2023-06-22T09:33:36;8.23;;;7.43;;
18360;SDS011;9308;48.550;9.108;2023-06-22T09:36:05;11.57;;;7.60;;
18360;SDS011;9308;48.550;9.108;2023-06-22T09:38:37;8.83;;;7.83;;
18360;SDS011;9308;48.550;9.108;2023-06-22T09:41:03;10.60;;;8.27;;
18360;SDS011;9308;48.550;9.108;2023-06-22T09:43:29;9.63;;;7.43;;
18360;SDS011;9308;48.550;9.108;2023-06-22T09:45:56;9.20;;;8.30;;
18360;SDS011;9308;48.550;9.108;2023-06-22T09:48:22;9.20;;;7.90;;
18360;SDS011;9308;48.550;9.108;2023-06-22T09:50:47;7.93;;;7.13;;
18360;SDS011;9308;48.550;9.108;2023-06-22T09:53:13;9.33;;;8.33;;
18360;SDS011;9308;48.550;9.108;2023-06-22T09:55:38;8.17;;;7.37;;
18360;SDS011;9308;48.550;9.108;2023-06-22T09:58:04;12.00;;;8.40;;
18360;SDS011;9308;48.550;9.108;2023-06-22T10:00:29;9.87;;;7.77;;
18360;SDS011;9308;48.550;9.108;2023-06-22T10:02:54;11.50;;;7.87;;
18360;SDS011;9308;48.550;9.108;2023-06-22T10:05:21;14.33;;;8.50;;
18360;SDS011;9308;48.550;9.108;2023-06-22T10:07:47;8.80;;;7.67;;
18360;SDS011;9308;48.550;9.108;2023-06-22T10:10:13;10.17;;;7.53;;
18360;SDS011;9308;48.550;9.108;2023-06-22T10:12:42;13.60;;;8.33;;
18360;SDS011;9308;48.550;9.108;2023-06-22T10:15:09;9.03;;;7.97;;
18360;SDS011;9308;48.550;9.108;2023-06-22T10:17:35;8.40;;;7.50;;
18360;SDS011;9308;48.550;9.108;2023-06-22T10:20:00;8.33;;;7.63;;
18360;SDS011;9308;48.550;9.108;2023-06-22T10:22:31;8.50;;;7.60;;
18360;SDS011;9308;48.550;9.108;2023-06-22T10:24:56;9.07;;;8.17;;
18360;SDS011;9308;48.550;9.108;2023-06-22T10:27:21;10.20;;;8.10;;
18360;SDS011;9308;48.550;9.108;2023-06-22T10:29:47;8.80;;;7.97;;
18360;SDS011;9308;48.550;9.108;2023-06-22T10:32:12;10.77;;;8.30;;
18360;SDS011;9308;48.550;9.108;2023-06-22T10:34:38;8.87;;;7.97;;
18360;SDS011;9308;48.550;9.108;2023-06-22T10:37:03;9.50;;;8.50;;
18360;SDS011;9308;48.550;9.108;2023-06-22T10:39:29;10.73;;;7.57;;
18360;SDS011;9308;48.550;9.108;2023-06-22T10:41:54;9.73;;;7.37;;
18360;SDS011;9308;48.550;9.108;2023-06-22T10:44:21;8.17;;;7.43;;
18360;SDS011;9308;48.550;9.108;2023-06-22T10:46:46;9.80;;;7.97;;
18360;SDS011;9308;48.550;9.108;2023-06-22T10:49:12;8.87;;;7.17;;
18360;SDS011;9308;48.550;9.108;2023-06-22T10:51:37;11.53;;;7.90;;
18360;SDS011;9308;48.550;9.108;2023-06-22T10:54:02;10.90;;;7.20;;
18360;SDS011;9308;48.550;9.108;2023-06-22T10:56:29;9.43;;;8.43;;
18360;SDS011;9308;48.550;9.108;2023-06-22T10:58:54;10.17;;;7.80;;
18360;SDS011;9308;48.550;9.108;2023-06-22T11:01:20;10.60;;;8.10;;
18360;SDS011;9308;48.550;9.108;2023-06-22T11:03:46;9.13;;;8.07;;
18360;SDS011;9308;48.550;9.108;2023-06-22T11:06:11;9.23;;;8.13;;
18360;SDS011;9308;48.550;9.108;2023-06-22T11:08:37;10.30;;;7.90;;
18360;SDS011;9308;48.550;9.108;2023-06-22T11:11:02;10.67;;;8.00;;
18360;SDS011;9308;48.550;9.108;2023-06-22T11:13:27;11.97;;;7.90;;
18360;SDS011;9308;48.550;9.108;2023-06-22T11:15:53;9.40;;;7.57;;
18360;SDS011;9308;48.550;9.108;2023-06-22T11:18:18;8.03;;;7.23;;
18360;SDS011;9308;48.550;9.108;2023-06-22T11:20:44;10.90;;;8.20;;
18360;SDS011;9308;48.550;9.108;2023-06-22T11:23:09;7.93;;;7.00;;
18360;SDS011;9308;48.550;9.108;2023-06-22T11:25:35;8.50;;;7.50;;
18360;SDS011;9308;48.550;9.108;2023-06-22T11:28:01;9.40;;;7.37;;
18360;SDS011;9308;48.550;9.108;2023-06-22T11:30:28;10.00;;;6.87;;
18360;SDS011;9308;48.550;9.108;2023-06-22T11:32:53;10.27;;;7.90;;
18360;SDS011;9308;48.550;9.108;2023-06-22T11:35:19;8.70;;;7.80;;
18360;SDS011;9308;48.550;9.108;2023-06-22T11:37:44;10.30;;;8.20;;
18360;SDS011;9308;48.550;9.108;2023-06-22T11:40:10;9.53;;;8.57;;
18360;SDS011;9308;48.550;9.108;2023-06-22T11:42:35;10.70;;;8.57;;
18360;SDS011;9308;48.550;9.108;2023-06-22T11:45:01;8.33;;;7.50;;
18360;SDS011;9308;48.550;9.108;2023-06-22T11:47:29;12.37;;;8.07;;
18360;SDS011;9308;48.550;9.108;2023-06-22T11:49:55;9.03;;;8.13;;
18360;SDS011;9308;48.550;9.108;2023-06-22T11:52:21;13.50;;;8.20;;
18360;SDS011;9308;48.550;9.108;2023-06-22T11:54:46;8.50;;;7.70;;
18360;SDS011;9308;48.550;9.108;2023-06-22T11:57:12;9.60;;;7.47;;
18360;SDS011;9308;48.550;9.108;2023-06-22T11:59:37;11.73;;;8.60;;
18360;SDS011;9308;48.550;9.108;2023-06-22T12:02:03;9.20;;;7.87;;
18360;SDS011;9308;48.550;9.108;2023-06-22T12:04:30;11.00;;;8.13;;
18360;SDS011;9308;48.550;9.108;2023-06-22T12:06:56;12.77;;;9.33;;
18360;SDS011;9308;48.550;9.108;2023-06-22T12:09:21;13.67;;;8.40;;
18360;SDS011;9308;48.550;9.108;2023-06-22T12:11:46;8.60;;;7.00;;
18360;SDS011;9308;48.550;9.108;2023-06-22T12:14:12;16.30;;;9.30;;
18360;SDS011;9308;48.550;9.108;2023-06-22T12:16:37;8.97;;;8.03;;
18360;SDS011;9308;48.550;9.108;2023-06-22T12:19:02;9.67;;;8.70;;
18360;SDS011;9308;48.550;9.108;2023-06-22T12:21:28;11.23;;;8.40;;
18360;SDS011;9308;48.550;9.108;2023-06-22T12:23:54;12.07;;;9.57;;
18360;SDS011;9308;48.550;9.108;2023-06-22T12:26:19;10.30;;;9.33;;
18360;SDS011;9308;48.550;9.108;2023-06-22T12:28:44;13.03;;;8.50;;
18360;SDS011;9308;48.550;9.108;2023-06-22T12:31:10;11.27;;;9.00;;
18360;SDS011;9308;48.550;9.108;2023-06-22T12:33:35;9.53;;;7.90;;
18360;SDS011;9308;48.550;9.108;2023-06-22T12:36:01;10.80;;;8.47;;
18360;SDS011;9308;48.550;9.108;2023-06-22T12:38:26;11.53;;;8.23;;
18360;SDS011;9308;48.550;9.108;2023-06-22T12:40:52;9.97;;;7.93;;
18360;SDS011;9308;48.550;9.108;2023-06-22T12:43:17;9.23;;;8.03;;
18360;SDS011;9308;48.550;9.108;2023-06-22T12:45:43;8.83;;;7.97;;
18360;SDS011;9308;48.550;9.108;2023-06-22T12:48:08;9.77;;;8.50;;
18360;SDS011;9308;48.550;9.108;2023-06-22T12:50:34;9.13;;;7.97;;
18360;SDS011;9308;48.550;9.108;2023-06-22T12:52:59;9.60;;;8.00;;
18360;SDS011;9308;48.550;9.108;2023-06-22T12:55:27;9.37;;;8.10;;
18360;SDS011;9308;48.550;9.108;2023-06-22T12:57:52;11.90;;;7.87;;
18360;SDS011;9308;48.550;9.108;2023-06-22T13:00:18;8.93;;;8.00;;
18360;SDS011;9308;48.550;9.108;2023-06-22T13:02:43;11.97;;;8.07;;
18360;SDS011;9308;48.550;9.108;2023-06-22T13:05:09;8.90;;;8.10;;
18360;SDS011;9308;48.550;9.108;2023-06-22T13:07:34;8.97;;;8.07;;
18360;SDS011;9308;48.550;9.108;2023-06-22T13:09:59;8.47;;;7.60;;
18360;SDS011;9308;48.550;9.108;2023-06-22T13:12:25;10.43;;;8.53;;
18360;SDS011;9308;48.550;9.108;2023-06-22T13:14:50;9.43;;;7.53;;
18360;SDS011;9308;48.550;9.108;2023-06-22T13:17:16;10.73;;;7.57;;
18360;SDS011;9308;48.550;9.108;2023-06-22T13:19:41;12.40;;;8.60;;
18360;SDS011;9308;48.550;9.108;2023-06-22T13:24:54;9.43;;;8.20;;
18360;SDS011;9308;48.550;9.108;2023-06-22T13:27:20;11.83;;;8.00;;
18360;SDS011;9308;48.550;9.108;2023-06-22T13:29:46;11.30;;;7.73;;
18360;SDS011;9308;48.550;9.108;2023-06-22T13:32:11;9.80;;;8.37;;
18360;SDS011;9308;48.550;9.108;2023-06-22T13:34:36;9.93;;;7.90;;
18360;SDS011;9308;48.550;9.108;2023-06-22T13:37:02;9.97;;;7.70;;
18360;SDS011;9308;48.550;9.108;2023-06-22T13:39:27;9.03;;;7.87;;
18360;SDS011;9308;48.550;9.108;2023-06-22T13:41:53;9.30;;;8.03;;
18360;SDS011;9308;48.550;9.108;2023-06-22T13:44:18;8.60;;;7.73;;
18360;SDS011;9308;48.550;9.108;2023-06-22T13:46:43;9.50;;;8.40;;
18360;SDS011;9308;48.550;9.108;2023-06-22T13:49:09;9.90;;;7.63;;
18360;SDS011;9308;48.550;9.108;2023-06-22T13:51:35;8.70;;;7.67;;
18360;SDS011;9308;48.550;9.108;2023-06-22T13:54:01;8.70;;;7.60;;
18360;SDS011;9308;48.550;9.108;2023-06-22T13:56:26;8.73;;;7.77;;
18360;SDS011;9308;48.550;9.108;2023-06-22T13:58:52;8.03;;;7.23;;
18360;SDS011;9308;48.550;9.108;2023-06-22T14:01:17;10.40;;;8.50;;
18360;SDS011;9308;48.550;9.108;2023-06-22T14:03:43;11.40;;;7.10;;
18360;SDS011;9308;48.550;9.108;2023-06-22T14:06:10;11.50;;;8.20;;
18360;SDS011;9308;48.550;9.108;2023-06-22T14:08:36;11.33;;;8.40;;
18360;SDS011;9308;48.550;9.108;2023-06-22T14:11:02;12.67;;;8.60;;
18360;SDS011;9308;48.550;9.108;2023-06-22T14:13:27;10.73;;;7.97;;
18360;SDS011;9308;48.550;9.108;2023-06-22T14:15:53;9.70;;;7.83;;
18360;SDS011;9308;48.550;9.108;2023-06-22T14:18:19;8.70;;;6.63;;
18360;SDS011;9308;48.550;9.108;2023-06-22T14:20:45;8.80;;;7.90;;
18360;SDS011;9308;48.550;9.108;2023-06-22T14:23:11;13.00;;;8.17;;
18360;SDS011;9308;48.550;9.108;2023-06-22T14:25:36;10.07;;;8.80;;
18360;SDS011;9308;48.550;9.108;2023-06-22T14:28:02;12.27;;;8.83;;
18360;SDS011;9308;48.550;9.108;2023-06-22T14:30:27;10.57;;;8.57;;
18360;SDS011;9308;48.550;9.108;2023-06-22T14:32:53;13.87;;;8.07;;
18360;SDS011;9308;48.550;9.108;2023-06-22T14:35:18;11.23;;;8.30;;
18360;SDS011;9308;48.550;9.108;2023-06-22T14:37:44;8.37;;;7.57;;
18360;SDS011;9308;48.550;9.108;2023-06-22T14:40:10;12.60;;;8.00;;
18360;SDS011;9308;48.550;9.108;2023-06-22T14:42:36;14.27;;;8.40;;
18360;SDS011;9308;48.550;9.108;2023-06-22T14:45:01;9.60;;;7.67;;
18360;SDS011;9308;48.550;9.108;2023-06-22T14:47:27;11.30;;;8.07;;
18360;SDS011;9308;48.550;9.108;2023-06-22T14:49:52;12.87;;;7.47;;
18360;SDS011;9308;48.550;9.108;2023-06-22T14:52:17;8.60;;;7.33;;
18360;SDS011;9308;48.550;9.108;2023-06-22T14:54:43;9.20;;;7.57;;